Time;durP1;ratioP1;P1;durP2;ratioP2;P2;SDS_P1;SDS_P2;PMS_P1;PMS_P2;Temp;Humidity;BMP_temperature;BMP_pressure;BME280_temperature;BME280_humidity;BME280_pressure;Samples;Min_cycle;Max_cycle;Signal;HPM_P1;HPM_P2
2023/05/18 00:00:23;;;;;;;2.28;0.20;;;;;;;6.90;69.18;102000.59;5061967;28;20056;-69
2023/05/18 00:02:50;;;;;;;0.35;0.10;;;;;;;6.87;69.57;102001.41;5060864;28;20051;-69
2023/05/18 00:05:18;;;;;;;0.95;0.10;;;;;;;6.86;69.37;102010.06;5059441;28;20076;-69
2023/05/18 00:07:46;;;;;;;0.32;0.10;;;;;;;6.85;69.56;102010.88;5057373;28;20108;-68
2023/05/18 00:10:13;;;;;;;1.02;0.10;;;;;;;6.83;69.46;102020.41;5058118;28;20049;-69
2023/05/18 00:12:40;;;;;;;0.35;0.10;;;;;;;6.81;69.31;102022.09;5061134;28;20048;-68
2023/05/18 00:15:08;;;;;;;0.22;0.10;;;;;;;6.81;69.52;102023.81;5061507;28;20130;-69
2023/05/18 00:17:35;;;;;;;0.20;0.00;;;;;;;6.80;69.43;102033.31;5059143;28;20570;-69
2023/05/18 00:20:03;;;;;;;0.57;0.10;;;;;;;6.81;69.44;102034.22;5061602;28;20398;-69
2023/05/18 00:22:31;;;;;;;1.98;0.00;;;;;;;6.80;69.49;102037.63;5058620;28;20048;-69
2023/05/18 00:24:59;;;;;;;0.25;0.10;;;;;;;6.79;69.40;102039.34;5059716;28;20044;-69
2023/05/18 00:27:26;;;;;;;0.57;0.10;;;;;;;6.80;69.57;102037.63;5057155;28;20053;-69
2023/05/18 00:29:53;;;;;;;7.45;2.50;;;;;;;6.72;69.08;102029.72;5062167;28;20048;-69
2023/05/18 00:32:19;;;;;;;1.58;0.10;;;;;;;6.79;69.42;102041.97;5058266;28;20436;-69
2023/05/18 00:34:46;;;;;;;0.52;0.08;;;;;;;6.79;69.21;102052.34;5062644;28;20052;-70
2023/05/18 00:37:13;;;;;;;0.32;0.10;;;;;;;6.80;69.31;102056.69;5055535;28;20052;-69
2023/05/18 00:39:40;;;;;;;0.30;0.00;;;;;;;6.79;69.12;102052.34;5059877;28;20049;-69
2023/05/18 00:42:08;;;;;;;0.70;0.10;;;;;;;6.80;69.16;102051.50;5060804;28;20451;-69
2023/05/18 00:44:35;;;;;;;0.10;0.10;;;;;;;6.80;69.33;102054.09;5061072;28;20052;-69
2023/05/18 00:47:02;;;;;;;0.10;0.10;;;;;;;6.80;69.16;102059.28;5056826;28;20049;-69
2023/05/18 00:49:29;;;;;;;0.10;0.03;;;;;;;6.77;69.07;102056.63;5064504;28;20060;-68
2023/05/18 00:51:56;;;;;;;0.10;0.10;;;;;;;6.78;68.88;102061.00;5058369;28;20045;-69
2023/05/18 00:54:23;;;;;;;0.13;0.00;;;;;;;6.78;68.97;102066.19;5062675;28;20041;-69
2023/05/18 00:56:51;;;;;;;1.75;0.10;;;;;;;6.77;69.00;102074.81;5061182;28;20049;-69
2023/05/18 00:59:19;;;;;;;0.47;0.10;;;;;;;6.75;68.93;102082.59;5067344;28;20049;-69
2023/05/18 01:01:47;;;;;;;0.55;0.10;;;;;;;6.75;68.73;102084.31;5065059;28;20500;-69
2023/05/18 01:04:14;;;;;;;0.10;0.00;;;;;;;6.73;68.77;102091.19;5063452;28;20044;-69
2023/05/18 01:06:41;;;;;;;0.55;0.10;;;;;;;6.72;68.75;102097.25;5053470;28;20040;-69
2023/05/18 01:09:10;;;;;;;0.43;0.00;;;;;;;6.72;68.71;102099.84;5062069;28;20052;-69
2023/05/18 01:11:52;;;;;;;0.85;0.10;;;;;;;6.71;68.62;102111.06;5064189;28;20265;-69
2023/05/18 01:14:28;;;;;;;0.32;0.10;;;;;;;6.67;68.31;102109.25;5061389;28;20181;-68
2023/05/18 01:17:05;;;;;;;2.03;0.08;;;;;;;6.68;68.41;102116.19;5059664;28;20486;-69
2023/05/18 01:20:05;;;;;;;0.30;0.10;;;;;;;6.66;68.08;102116.19;5059314;28;20460;-69
2023/05/18 01:23:05;;;;;;;0.45;0.00;;;;;;;6.65;67.95;102116.13;5058420;28;20061;-69
2023/05/18 01:25:35;;;;;;;1.58;0.13;;;;;;;6.63;67.84;102130.81;5040702;28;20060;-69
2023/05/18 01:28:08;;;;;;;2.00;0.10;;;;;;;6.60;67.64;102125.56;5062312;28;20131;-69
2023/05/18 01:30:41;;;;;;;0.20;0.00;;;;;;;6.59;67.85;102136.78;5057327;28;20041;-69
2023/05/18 01:33:08;;;;;;;1.30;0.10;;;;;;;6.57;67.53;102138.47;5061467;28;20045;-69
2023/05/18 01:35:35;;;;;;;2.17;0.00;;;;;;;6.52;67.77;102141.88;5057001;28;20517;-69
2023/05/18 01:38:02;;;;;;;0.70;0.10;;;;;;;6.51;67.39;102140.09;5060431;28;20052;-69
2023/05/18 01:40:33;;;;;;;0.95;0.13;;;;;;;6.49;67.32;102152.19;5060354;28;20048;-69
2023/05/18 01:43:08;;;;;;;1.15;0.00;;;;;;;6.47;67.28;102161.66;5060656;28;20499;-69
2023/05/18 01:45:36;;;;;;;;;;;;;;;6.46;67.39;102164.22;5063756;28;20055;-69
2023/05/18 01:48:04;;;;;;;0.20;0.00;;;;;;;6.41;67.45;102171.91;5055813;28;19943;-69
2023/05/18 01:50:36;;;;;;;0.15;0.10;;;;;;;6.39;67.08;102171.00;5056740;28;20044;-69
2023/05/18 01:53:08;;;;;;;0.08;0.00;;;;;;;6.37;66.95;102161.44;5062808;28;20152;-69
2023/05/18 01:55:36;;;;;;;1.65;0.10;;;;;;;6.32;67.04;102169.13;5055134;28;20073;-69
2023/05/18 01:58:06;;;;;;;1.55;0.10;;;;;;;6.31;66.98;102172.56;5059244;28;20056;-69
2023/05/18 02:00:34;;;;;;;2.85;0.10;;;;;;;6.25;66.77;102169.84;5062108;28;20052;-69
2023/05/18 02:03:01;;;;;;;0.15;0.08;;;;;;;6.27;67.03;102175.94;5062723;28;20056;-69
2023/05/18 02:05:27;;;;;;;3.00;0.20;;;;;;;6.24;66.69;102186.25;5061925;28;20134;-69
2023/05/18 02:07:54;;;;;;;0.95;0.10;;;;;;;6.22;66.71;102193.13;5059815;28;20055;-69
2023/05/18 02:10:21;;;;;;;1.15;0.10;;;;;;;6.20;66.52;102189.59;5062620;28;20052;-69
2023/05/18 02:12:51;;;;;;;1.38;0.10;;;;;;;6.19;66.56;102199.13;5049776;28;20050;-69
2023/05/18 02:15:20;;;;;;;4.50;0.10;;;;;;;6.16;66.50;102201.66;5061657;28;20131;-74
2023/05/18 02:17:47;;;;;;;0.88;0.10;;;;;;;6.12;66.05;102212.81;5056789;28;20122;-73
2023/05/18 02:20:17;;;;;;;0.47;0.05;;;;;;;6.12;66.13;102207.63;5056963;28;20091;-74
2023/05/18 02:22:44;;;;;;;0.13;0.10;;;;;;;6.11;66.28;102216.22;5059240;28;20040;-73
2023/05/18 02:25:11;;;;;;;1.65;0.00;;;;;;;6.08;66.20;102219.63;5061574;28;20088;-74
2023/05/18 02:27:38;;;;;;;5.00;0.90;;;;;;;6.06;66.43;102223.03;5059466;28;20067;-74
2023/05/18 02:30:07;;;;;;;0.57;0.10;;;;;;;6.04;66.16;102220.41;5059864;28;20049;-73
2023/05/18 02:32:37;;;;;;;0.32;0.10;;;;;;;6.01;66.31;102225.53;5055723;28;20497;-73
2023/05/18 02:35:06;;;;;;;0.20;0.08;;;;;;;5.99;66.00;102222.00;5058236;28;20416;-75
2023/05/18 02:37:38;;;;;;;0.13;0.03;;;;;;;5.97;66.02;102234.06;5060713;28;20051;-75
2023/05/18 02:40:07;;;;;;;0.65;0.60;;;;;;;5.97;65.86;102234.06;5060713;28;20093;-75
2023/05/18 02:42:33;;;;;;;2.67;0.10;;;;;;;5.94;66.02;102236.56;5062186;28;20151;-75
2023/05/18 02:45:01;;;;;;;0.63;0.10;;;;;;;5.93;65.87;102240.03;5033548;28;20501;-75
2023/05/18 02:47:28;;;;;;;1.73;0.17;;;;;;;5.91;65.90;102238.19;5058042;28;20055;-75
2023/05/18 02:49:56;;;;;;;0.22;0.10;;;;;;;5.90;65.71;102233.88;5060299;28;20122;-76
2023/05/18 02:52:23;;;;;;;2.03;0.10;;;;;;;5.87;65.57;102232.06;5059759;28;20052;-75
2023/05/18 02:54:53;;;;;;;3.70;0.10;;;;;;;5.87;65.76;102237.25;5062512;28;20072;-75
2023/05/18 02:57:20;;;;;;;1.85;0.13;;;;;;;5.85;66.03;102241.50;5060334;28;20504;-76
2023/05/18 02:59:47;;;;;;;1.98;0.10;;;;;;;5.82;65.74;102238.84;5054617;28;20140;-75
2023/05/18 03:02:15;;;;;;;0.55;0.10;;;;;;;5.82;65.84;102249.22;5054206;28;20722;-75
2023/05/18 03:04:42;;;;;;;0.52;0.10;;;;;;;5.79;66.11;102252.63;5060502;28;20052;-75
2023/05/18 03:07:10;;;;;;;0.93;0.10;;;;;;;5.80;65.92;102256.94;5060196;28;20040;-74
2023/05/18 03:09:37;;;;;;;0.70;0.10;;;;;;;5.78;65.78;102258.66;5060026;28;20540;-75
2023/05/18 03:12:05;;;;;;;4.15;0.20;;;;;;;5.77;65.65;102261.19;5060196;28;20072;-75
2023/05/18 03:14:32;;;;;;;3.30;0.10;;;;;;;5.75;66.23;102268.94;5061546;28;20520;-75
2023/05/18 03:16:59;;;;;;;1.38;0.10;;;;;;;5.74;66.22;102272.34;5061583;28;20412;-75
2023/05/18 03:19:26;;;;;;;3.85;0.13;;;;;;;5.73;66.26;102274.94;5060712;28;20148;-75
2023/05/18 03:21:53;;;;;;;1.00;0.68;;;;;;;5.72;66.70;102274.06;5058021;28;20299;-77
2023/05/18 03:24:25;;;;;;;0.20;0.10;;;;;;;5.71;66.51;102281.78;5058552;28;20053;-75
2023/05/18 03:26:53;;;;;;;0.43;0.10;;;;;;;5.70;66.46;102285.22;5053983;28;20045;-75
2023/05/18 03:29:20;;;;;;;0.15;0.05;;;;;;;5.70;66.60;102286.09;5040164;28;20519;-75
2023/05/18 03:31:47;;;;;;;3.03;0.30;;;;;;;5.72;66.79;102293.91;5040367;28;20049;-75
2023/05/18 03:34:14;;;;;;;1.77;0.10;;;;;;;5.70;66.86;102295.59;5042856;28;20052;-75
2023/05/18 03:36:46;;;;;;;1.58;0.20;;;;;;;5.72;67.00;102299.09;5039423;28;20150;-76
2023/05/18 03:39:13;;;;;;;0.95;0.10;;;;;;;5.73;67.30;102306.03;5042981;28;20041;-75
2023/05/18 03:41:41;;;;;;;2.53;0.10;;;;;;;5.75;67.31;102306.94;5035763;28;20053;-75
2023/05/18 03:44:08;;;;;;;0.35;0.10;;;;;;;5.76;67.27;102308.72;5040421;28;20045;-75
2023/05/18 03:46:35;;;;;;;1.50;0.10;;;;;;;5.77;67.53;102313.91;5041260;28;20052;-74
2023/05/18 03:49:03;;;;;;;2.67;0.10;;;;;;;5.80;67.47;102313.13;5039661;28;20496;-75
2023/05/18 03:51:31;;;;;;;0.20;0.10;;;;;;;5.80;67.67;102314.00;5042824;28;20052;-74
2023/05/18 03:53:58;;;;;;;0.98;0.22;;;;;;;5.84;67.52;102321.03;5037895;28;20067;-75
2023/05/18 03:56:24;;;;;;;2.42;0.10;;;;;;;5.87;67.42;102317.66;5044019;28;20045;-76
2023/05/18 03:58:53;;;;;;;0.95;0.20;;;;;;;5.91;67.72;102328.97;5040669;28;20072;-74
2023/05/18 04:01:22;;;;;;;0.70;0.10;;;;;;;5.93;67.80;102329.91;5041766;28;20053;-74
2023/05/18 04:03:49;;;;;;;1.05;0.10;;;;;;;5.97;67.70;102331.75;5043597;28;20052;-75
2023/05/18 04:06:16;;;;;;;2.20;0.20;;;;;;;5.99;67.73;102332.69;5037085;28;20043;-74
2023/05/18 04:08:45;;;;;;;4.53;0.20;;;;;;;6.05;68.11;102335.41;5040733;28;20041;-75
2023/05/18 04:11:12;;;;;;;0.95;0.20;;;;;;;6.08;67.88;102331.19;5042088;28;20167;-75
2023/05/18 04:13:39;;;;;;;0.57;0.10;;;;;;;6.14;67.62;102339.97;5038822;28;20056;-74
2023/05/18 04:16:09;;;;;;;0.50;0.15;;;;;;;6.17;67.86;102334.84;5044394;28;20052;-75
2023/05/18 04:18:36;;;;;;;2.55;0.80;;;;;;;6.22;67.47;102341.03;5038099;28;20506;-74
2023/05/18 04:21:05;;;;;;;0.45;0.10;;;;;;;6.28;67.59;102341.16;5043410;28;20049;-74
2023/05/18 04:23:32;;;;;;;3.20;0.15;;;;;;;6.33;67.59;102344.75;5038179;28;20481;-75
2023/05/18 04:25:59;;;;;;;1.17;0.10;;;;;;;6.41;67.56;102342.38;5042981;28;20106;-74
2023/05/18 04:28:27;;;;;;;0.80;0.20;;;;;;;6.46;67.28;102344.22;5051602;28;20446;-74
2023/05/18 04:30:54;;;;;;;0.77;0.10;;;;;;;6.55;67.25;102347.88;5062278;28;20037;-74
2023/05/18 04:33:22;;;;;;;2.78;0.13;;;;;;;6.61;67.01;102342.81;5059600;28;20044;-74
2023/05/18 04:35:53;;;;;;;1.20;0.20;;;;;;;6.68;66.79;102342.09;5063149;28;20472;-74
2023/05/18 04:38:22;;;;;;;7.70;0.88;;;;;;;6.80;66.69;102350.16;5059585;28;20115;-74
2023/05/18 04:40:49;;;;;;;0.43;0.10;;;;;;;6.90;66.82;102346.94;5061932;28;20057;-75
2023/05/18 04:43:17;;;;;;;2.20;0.20;;;;;;;6.99;65.98;102348.84;5065113;28;20780;-74
2023/05/18 04:45:45;;;;;;;0.17;0.10;;;;;;;7.13;65.43;102349.16;5060239;28;20519;-74
2023/05/18 04:48:13;;;;;;;1.33;0.15;;;;;;;7.22;65.50;102360.59;5061450;28;20060;-73
2023/05/18 04:50:41;;;;;;;2.25;0.10;;;;;;;7.33;65.05;102358.22;5050343;28;20044;-74
2023/05/18 04:53:11;;;;;;;2.72;0.10;;;;;;;7.45;65.13;102357.59;5061977;28;20499;-74
2023/05/18 04:55:38;;;;;;;1.38;0.10;;;;;;;7.56;64.47;102361.28;5058793;28;20059;-74
2023/05/18 04:58:05;;;;;;;1.75;0.10;;;;;;;7.69;64.50;102364.16;5059694;28;20140;-73
2023/05/18 05:00:32;;;;;;;2.17;0.57;;;;;;;7.81;64.16;102373.03;5057915;28;20056;-74
2023/05/18 05:02:59;;;;;;;3.00;0.10;;;;;;;7.93;64.37;102366.31;5063138;28;20063;-74
2023/05/18 05:05:26;;;;;;;2.83;0.15;;;;;;;8.00;63.81;102365.59;5042339;28;20052;-74
2023/05/18 05:07:54;;;;;;;0.30;0.10;;;;;;;8.16;63.90;102375.38;5059959;28;20036;-73
2023/05/18 05:10:22;;;;;;;1.05;0.10;;;;;;;8.27;63.74;102373.84;5058443;28;20103;-73
2023/05/18 05:12:49;;;;;;;0.20;0.10;;;;;;;8.39;63.01;102380.13;5062065;28;20055;-74
2023/05/18 05:15:16;;;;;;;1.80;0.15;;;;;;;8.41;62.96;102362.81;5060128;28;20832;-75
2023/05/18 05:17:43;;;;;;;3.30;0.10;;;;;;;8.62;62.35;102385.72;5060362;28;20040;-74
2023/05/18 05:20:10;;;;;;;1.13;0.15;;;;;;;8.73;62.42;102385.00;5060475;28;20044;-74
2023/05/18 05:22:37;;;;;;;0.52;0.20;;;;;;;8.82;62.21;102393.81;5062154;28;20508;-75
2023/05/18 05:25:07;;;;;;;0.50;0.10;;;;;;;8.92;61.81;102393.13;5056195;28;20068;-75
2023/05/18 05:27:34;;;;;;;2.25;0.20;;;;;;;9.03;61.91;102391.53;5065503;28;20057;-74
2023/05/18 05:30:01;;;;;;;0.68;0.20;;;;;;;9.13;61.04;102396.00;5060131;28;20055;-76
2023/05/18 05:32:28;;;;;;;4.22;0.13;;;;;;;9.20;61.22;102397.84;5063905;28;20067;-74
2023/05/18 05:34:55;;;;;;;0.90;0.10;;;;;;;9.30;60.96;102396.22;5058374;28;20115;-72
2023/05/18 05:37:21;;;;;;;1.02;0.15;;;;;;;9.39;59.98;102404.19;5063348;28;20068;-74
2023/05/18 05:39:48;;;;;;;0.65;0.10;;;;;;;9.48;59.69;102408.66;5062741;28;20043;-73
2023/05/18 05:42:16;;;;;;;1.20;0.10;;;;;;;9.55;59.25;102410.44;5057960;28;20048;-74
2023/05/18 05:44:43;;;;;;;0.70;0.10;;;;;;;9.62;58.66;102406.16;5061233;28;20052;-73
2023/05/18 05:47:10;;;;;;;2.05;0.10;;;;;;;9.66;58.27;102402.75;5026310;28;20044;-73
2023/05/18 05:49:37;;;;;;;0.90;0.10;;;;;;;9.73;58.07;102414.13;5063515;28;20041;-73
2023/05/18 05:52:04;;;;;;;0.40;0.10;;;;;;;9.78;58.50;102420.28;5062378;28;20051;-73
2023/05/18 05:54:31;;;;;;;1.30;0.35;;;;;;;9.81;57.72;102415.97;5059588;28;20041;-74
2023/05/18 05:56:58;;;;;;;1.92;0.10;;;;;;;9.86;57.59;102424.72;5067021;28;20496;-75
2023/05/18 05:59:26;;;;;;;1.13;0.20;;;;;;;9.89;57.63;102426.50;5062958;28;20044;-73
2023/05/18 06:01:53;;;;;;;1.08;0.10;;;;;;;9.92;57.29;102423.91;5059980;28;20048;-73
2023/05/18 06:04:20;;;;;;;2.65;0.20;;;;;;;9.95;56.69;102425.69;5065047;28;20055;-73
2023/05/18 06:06:48;;;;;;;3.72;0.10;;;;;;;9.96;56.51;102428.31;5057643;28;20048;-73
2023/05/18 06:09:15;;;;;;;0.70;0.10;;;;;;;9.99;56.04;102430.97;5059496;28;20086;-73
2023/05/18 06:11:42;;;;;;;1.73;0.15;;;;;;;10.01;56.27;102436.19;5060044;28;20072;-73
2023/05/18 06:14:09;;;;;;;3.50;0.85;;;;;;;10.03;56.13;102440.56;5061891;28;20048;-74
2023/05/18 06:16:38;;;;;;;1.88;0.10;;;;;;;10.05;56.34;102443.22;5059028;28;20052;-73
2023/05/18 06:19:04;;;;;;;2.55;0.20;;;;;;;10.06;55.66;102447.56;5056471;28;20501;-73
2023/05/18 06:21:31;;;;;;;0.60;0.10;;;;;;;10.06;55.76;102440.59;5062894;28;20055;-73
2023/05/18 06:24:00;;;;;;;1.48;0.30;;;;;;;10.08;54.98;102451.06;5059180;28;20048;-74
2023/05/18 06:26:27;;;;;;;2.67;0.10;;;;;;;10.07;55.35;102442.34;5057479;28;20048;-73
2023/05/18 06:28:53;;;;;;;1.60;0.20;;;;;;;10.07;54.84;102447.56;5062776;28;20057;-73
2023/05/18 06:31:20;;;;;;;1.00;0.10;;;;;;;10.06;55.14;102438.00;5059476;28;20056;-73
2023/05/18 06:33:49;;;;;;;0.70;0.10;;;;;;;10.07;54.49;102452.78;5057815;28;20049;-73
2023/05/18 06:36:16;;;;;;;0.20;0.10;;;;;;;10.05;54.48;102453.66;5060498;28;20047;-73
2023/05/18 06:38:43;;;;;;;1.42;0.10;;;;;;;10.07;53.88;102462.34;5062512;28;20048;-73
2023/05/18 06:41:10;;;;;;;0.65;0.10;;;;;;;10.07;54.31;102457.13;5060710;28;20048;-73
2023/05/18 06:43:37;;;;;;;0.95;0.10;;;;;;;10.08;53.76;102465.00;5060195;28;20134;-73
2023/05/18 06:46:04;;;;;;;1.77;0.20;;;;;;;10.07;54.25;102468.44;5060708;28;20406;-75
2023/05/18 06:48:30;;;;;;;3.00;0.10;;;;;;;10.07;53.51;102465.84;5056073;28;20044;-75
2023/05/18 06:50:59;;;;;;;2.58;0.10;;;;;;;10.09;53.65;102464.13;5059539;28;20056;-74
2023/05/18 06:53:26;;;;;;;1.75;0.10;;;;;;;10.12;53.47;102468.50;5054181;28;20044;-76
2023/05/18 06:55:53;;;;;;;0.90;0.35;;;;;;;10.12;53.58;102477.22;5038870;28;20052;-74
2023/05/18 06:58:20;;;;;;;0.68;0.08;;;;;;;10.16;52.95;102474.63;5052528;28;20048;-74
2023/05/18 07:00:48;;;;;;;2.25;0.20;;;;;;;10.19;52.50;102478.19;5052147;28;20412;-74
2023/05/18 07:03:15;;;;;;;2.38;0.20;;;;;;;10.24;52.62;102475.59;5060167;28;20089;-74
2023/05/18 07:05:42;;;;;;;0.68;0.13;;;;;;;10.28;52.82;102478.28;5059790;28;20087;-74
2023/05/18 07:08:10;;;;;;;2.05;0.10;;;;;;;10.34;52.90;102469.66;5056952;28;20041;-75
2023/05/18 07:10:37;;;;;;;1.80;0.10;;;;;;;10.41;53.37;102467.97;5061981;28;20094;-74
2023/05/18 07:13:04;;;;;;;2.90;0.20;;;;;;;10.47;53.29;102478.47;5058472;28;20044;-75
2023/05/18 07:15:32;;;;;;;0.88;0.10;;;;;;;10.53;53.01;102479.41;5060299;28;20155;-74
2023/05/18 07:17:58;;;;;;;1.00;0.20;;;;;;;10.61;53.29;102470.75;5058943;28;20048;-75
2023/05/18 07:20:25;;;;;;;0.38;0.15;;;;;;;10.68;52.46;102483.88;5055886;28;20048;-74
2023/05/18 07:22:53;;;;;;;0.75;0.10;;;;;;;10.77;52.95;102480.47;5060483;28;20087;-74
2023/05/18 07:25:22;;;;;;;1.92;0.10;;;;;;;10.86;51.10;102483.16;5059982;28;20130;-74
2023/05/18 07:27:50;;;;;;;1.35;0.10;;;;;;;10.95;52.07;102490.19;5061782;28;20053;-74
2023/05/18 07:30:17;;;;;;;0.30;0.10;;;;;;;11.02;51.29;102492.88;5056569;28;20052;-74
2023/05/18 07:32:44;;;;;;;1.33;0.10;;;;;;;11.10;51.11;102492.03;5061177;28;20051;-75
2023/05/18 07:35:11;;;;;;;0.80;0.10;;;;;;;11.20;51.65;102491.25;5059745;28;20051;-74
2023/05/18 07:37:38;;;;;;;1.48;0.10;;;;;;;11.29;50.06;102491.28;5061053;28;20049;-75
2023/05/18 07:40:08;;;;;;;0.30;0.10;;;;;;;11.37;51.24;102497.44;5051295;28;20041;-74
2023/05/18 07:42:38;;;;;;;4.50;0.10;;;;;;;11.45;50.61;102495.75;5052612;28;20048;-74
2023/05/18 07:45:07;;;;;;;0.30;0.10;;;;;;;11.54;51.13;102494.94;5059437;28;20044;-74
2023/05/18 07:47:34;;;;;;;1.40;0.10;;;;;;;11.57;51.18;102494.94;5059977;28;20543;-73
2023/05/18 07:50:01;;;;;;;0.25;0.10;;;;;;;11.71;50.03;102506.34;5056078;28;20067;-74
2023/05/18 07:52:28;;;;;;;2.67;0.17;;;;;;;11.80;49.46;102502.03;5054397;28;20068;-75
2023/05/18 07:54:56;;;;;;;0.85;0.10;;;;;;;11.91;48.84;102516.06;5059991;28;20040;-74
2023/05/18 07:57:23;;;;;;;0.50;0.15;;;;;;;12.02;48.97;102521.34;5058200;28;20045;-74
2023/05/18 07:59:52;;;;;;;0.28;0.10;;;;;;;12.12;48.60;102523.13;5057020;28;20382;-75
2023/05/18 08:02:19;;;;;;;2.05;0.10;;;;;;;12.20;48.40;102524.00;5058214;28;20053;-73
2023/05/18 08:04:46;;;;;;;4.38;0.10;;;;;;;12.28;48.60;102517.06;5056272;28;20048;-74
2023/05/18 08:07:13;;;;;;;3.38;0.10;;;;;;;12.31;48.09;102510.94;5059365;28;20056;-74
2023/05/18 08:09:40;;;;;;;3.42;0.10;;;;;;;12.44;48.37;102523.22;5060918;28;20087;-74
2023/05/18 08:12:08;;;;;;;0.77;0.10;;;;;;;12.52;48.38;102531.06;5059480;28;20834;-75
2023/05/18 08:14:35;;;;;;;0.55;0.10;;;;;;;12.60;48.05;102529.34;5064813;28;20071;-75
2023/05/18 08:17:05;;;;;;;1.65;0.10;;;;;;;12.65;47.97;102527.59;5057949;28;20041;-75
2023/05/18 08:19:32;;;;;;;0.32;0.10;;;;;;;12.72;47.97;102534.63;5064839;28;20588;-74
2023/05/18 08:21:59;;;;;;;3.10;0.10;;;;;;;12.77;47.27;102529.34;5061222;28;20416;-74
2023/05/18 08:24:25;;;;;;;0.75;0.10;;;;;;;12.83;48.18;102538.13;5062307;28;20067;-75
2023/05/18 08:26:52;;;;;;;1.05;0.10;;;;;;;12.89;47.79;102538.97;5063164;28;20055;-75
2023/05/18 08:29:19;;;;;;;0.50;0.10;;;;;;;12.94;47.58;102550.34;5065235;28;20135;-74
2023/05/18 08:31:46;;;;;;;1.77;0.10;;;;;;;12.98;47.61;102542.47;5063684;28;20044;-74
2023/05/18 08:34:15;;;;;;;2.95;0.10;;;;;;;13.04;46.33;102544.22;5032306;28;20072;-74
2023/05/18 08:36:44;;;;;;;0.52;0.13;;;;;;;13.09;47.35;102560.84;5061141;28;20056;-74
2023/05/18 08:39:11;;;;;;;2.58;0.10;;;;;;;13.13;47.01;102557.34;5066294;28;20455;-74
2023/05/18 08:41:44;;;;;;;1.00;0.10;;;;;;;13.18;46.57;102557.34;5060784;28;20059;-75
2023/05/18 08:44:17;;;;;;;0.90;0.10;;;;;;;13.22;46.32;102557.31;5059784;28;20501;-74
2023/05/18 08:46:47;;;;;;;0.70;0.05;;;;;;;13.28;46.57;102562.59;5059917;28;20052;-75
2023/05/18 08:49:20;;;;;;;0.88;0.10;;;;;;;13.33;45.22;102574.84;5062501;28;20055;-74
2023/05/18 08:51:48;;;;;;;1.67;0.10;;;;;;;13.34;43.84;102571.34;5059972;28;20052;-74
2023/05/18 08:54:20;;;;;;;1.23;0.10;;;;;;;13.37;44.19;102566.97;5060224;28;20107;-74
2023/05/18 08:56:48;;;;;;;0.60;0.00;;;;;;;13.40;45.28;102573.94;5064389;28;20102;-75
2023/05/18 08:59:18;;;;;;;3.20;0.65;;;;;;;13.43;44.55;102576.56;5066693;28;20041;-74
2023/05/18 09:01:46;;;;;;;0.30;0.10;;;;;;;13.43;45.12;102574.84;5060331;28;20052;-74
2023/05/18 09:04:15;;;;;;;0.17;0.00;;;;;;;13.49;44.52;102589.72;5060953;28;20052;-74
2023/05/18 09:06:42;;;;;;;5.10;0.13;;;;;;;13.51;44.32;102585.31;5054596;28;20049;-75
2023/05/18 09:09:10;;;;;;;0.13;0.10;;;;;;;13.56;42.90;102586.19;5059182;28;20040;-76
2023/05/18 09:11:39;;;;;;;2.65;0.10;;;;;;;13.56;41.83;102578.31;5057090;28;20048;-74
2023/05/18 09:14:06;;;;;;;0.15;0.10;;;;;;;13.58;43.33;102592.31;5052918;28;20059;-74
2023/05/18 09:16:33;;;;;;;0.85;0.00;;;;;;;13.63;43.62;102600.16;5058862;28;20052;-75
2023/05/18 09:19:00;;;;;;;0.70;0.10;;;;;;;13.64;43.14;102600.19;5055804;28;20200;-75
2023/05/18 09:21:31;;;;;;;0.13;0.00;;;;;;;13.68;43.39;102595.78;5054699;28;20051;-75
2023/05/18 09:23:59;;;;;;;0.70;0.10;;;;;;;13.75;43.78;102601.91;5060045;28;20144;-75
2023/05/18 09:26:26;;;;;;;0.68;0.17;;;;;;;13.80;43.91;102602.75;5057248;28;20056;-75
2023/05/18 09:28:54;;;;;;;0.28;0.15;;;;;;;13.76;43.37;102587.91;5056432;28;20153;-75
2023/05/18 09:31:23;;;;;;;0.45;0.10;;;;;;;13.83;43.31;102603.66;5055281;28;20439;-74
2023/05/18 09:33:50;;;;;;;0.85;0.10;;;;;;;13.86;42.64;102593.13;5058929;28;20423;-74
2023/05/18 09:36:17;;;;;;;0.25;0.10;;;;;;;13.90;43.34;102599.25;5052788;28;20090;-75
2023/05/18 09:38:46;;;;;;;0.70;0.10;;;;;;;13.96;43.45;102609.72;5060525;28;20048;-75
2023/05/18 09:41:15;;;;;;;0.45;0.00;;;;;;;13.99;41.50;102604.47;5057846;28;20053;-74
2023/05/18 09:43:44;;;;;;;1.20;0.20;;;;;;;14.01;42.39;102609.72;5061289;28;20068;-75
2023/05/18 09:46:12;;;;;;;0.25;0.03;;;;;;;14.04;41.10;102613.19;5030956;28;20580;-75
2023/05/18 09:48:43;;;;;;;0.10;0.05;;;;;;;14.06;41.31;102608.81;5061667;28;20060;-74
2023/05/18 09:51:12;;;;;;;2.17;0.10;;;;;;;14.07;39.44;102618.44;5063326;28;20064;-75
2023/05/18 09:53:40;;;;;;;0.57;0.20;;;;;;;14.07;39.82;102613.19;5060070;28;20056;-74
2023/05/18 09:56:10;;;;;;;0.75;0.25;;;;;;;14.08;40.43;102620.19;5054303;28;20833;-74
2023/05/18 09:58:38;;;;;;;2.55;0.10;;;;;;;14.12;41.04;102607.94;5054293;28;20040;-74
2023/05/18 10:01:05;;;;;;;0.13;0.00;;;;;;;14.15;41.39;102607.91;5063021;28;20054;-74
2023/05/18 10:03:35;;;;;;;1.15;0.10;;;;;;;14.19;41.10;102614.88;5047613;28;20492;-75
2023/05/18 10:06:05;;;;;;;1.23;0.10;;;;;;;14.23;41.44;102627.16;5062103;28;20477;-76
2023/05/18 10:08:32;;;;;;;0.30;0.10;;;;;;;14.27;41.66;102626.25;5061308;28;20083;-75
2023/05/18 10:10:59;;;;;;;0.75;0.10;;;;;;;14.29;40.37;102613.97;5057529;28;20040;-74
2023/05/18 10:13:30;;;;;;;0.57;0.10;;;;;;;14.32;40.84;102615.72;5059102;28;20505;-76
2023/05/18 10:15:59;;;;;;;0.93;0.00;;;;;;;14.33;39.54;102617.47;5054013;28;20075;-75
2023/05/18 10:18:27;;;;;;;2.00;0.10;;;;;;;14.33;39.56;102617.47;5060333;28;20622;-74
2023/05/18 10:20:56;;;;;;;2.20;0.10;;;;;;;14.33;40.26;102620.09;5058469;28;20056;-74
2023/05/18 10:23:24;;;;;;;0.75;0.10;;;;;;;14.34;39.09;102629.72;5060433;28;20052;-73
2023/05/18 10:25:52;;;;;;;3.13;0.10;;;;;;;14.33;39.66;102630.59;5055165;28;20039;-74
2023/05/18 10:28:24;;;;;;;0.52;0.10;;;;;;;14.35;40.15;102632.34;5062645;28;20425;-74
2023/05/18 10:30:54;;;;;;;2.15;0.10;;;;;;;14.34;38.75;102642.84;5060808;28;20589;-75
2023/05/18 10:33:24;;;;;;;0.98;0.10;;;;;;;14.33;39.70;102641.13;5058412;28;20045;-74
2023/05/18 10:35:51;;;;;;;0.20;0.10;;;;;;;14.32;39.94;102639.38;5057746;28;20041;-73
2023/05/18 10:38:23;;;;;;;2.10;0.10;;;;;;;14.33;40.19;102639.38;5062131;28;20056;-73
2023/05/18 10:40:51;;;;;;;1.55;0.10;;;;;;;14.35;40.13;102642.00;5053766;28;21976;-73
2023/05/18 10:43:20;;;;;;;0.98;0.20;;;;;;;14.37;40.78;102650.72;5059028;28;20052;-73
2023/05/18 10:45:50;;;;;;;1.00;0.10;;;;;;;14.37;40.19;102646.38;5061714;28;20137;-73
2023/05/18 10:48:19;;;;;;;0.40;0.00;;;;;;;14.39;40.24;102641.09;5060699;28;20049;-73
2023/05/18 10:50:48;;;;;;;0.17;0.10;;;;;;;14.39;40.48;102651.59;5061070;28;20441;-73
2023/05/18 10:53:17;;;;;;;1.27;0.10;;;;;;;14.38;38.35;102650.75;5063105;28;20832;-74
2023/05/18 10:55:44;;;;;;;0.40;0.30;;;;;;;14.35;38.70;102656.00;5061501;28;20055;-73
2023/05/18 10:58:14;;;;;;;0.25;0.10;;;;;;;14.34;39.66;102646.38;5059497;28;20045;-73
2023/05/18 11:00:44;;;;;;;2.40;0.10;;;;;;;14.35;38.43;102644.63;5058308;28;20049;-74
2023/05/18 11:03:13;;;;;;;1.00;0.08;;;;;;;14.34;39.20;102654.28;5059788;28;20054;-73
2023/05/18 11:05:42;;;;;;;0.40;0.10;;;;;;;14.34;38.98;102649.03;5062081;28;20150;-71
2023/05/18 11:08:09;;;;;;;1.95;0.13;;;;;;;14.35;39.26;102652.53;5057773;28;20044;-71
2023/05/18 11:10:41;;;;;;;0.85;0.20;;;;;;;14.32;39.82;102653.41;5061418;28;20049;-70
2023/05/18 11:13:10;;;;;;;0.17;0.17;;;;;;;14.36;39.50;102656.88;5059323;28;20045;-71
2023/05/18 11:16:03;;;;;;;0.75;0.10;;;;;;;14.37;40.17;102654.25;5059504;28;20072;-70
2023/05/18 11:18:39;;;;;;;0.13;0.10;;;;;;;14.37;39.30;102650.72;5062990;28;20079;-70
2023/05/18 11:21:34;;;;;;;0.70;0.00;;;;;;;14.37;39.88;102658.63;5061669;28;20071;-71
2023/05/18 11:24:14;;;;;;;0.77;0.20;;;;;;;14.36;39.69;102667.41;5047257;28;20123;-71
2023/05/18 11:26:44;;;;;;;1.55;0.10;;;;;;;14.35;39.74;102663.03;5056903;28;20049;-70
2023/05/18 11:29:23;;;;;;;1.67;0.15;;;;;;;14.36;40.18;102665.63;5060033;28;20053;-70
2023/05/18 11:31:51;;;;;;;1.75;0.15;;;;;;;14.37;40.15;102669.13;5058507;28;20051;-71
2023/05/18 11:34:40;;;;;;;0.63;0.10;;;;;;;14.38;40.57;102663.88;5059878;28;20047;-73